Terminal Aerodrome Forecast
Issued by NWS Bismarck, ND

Home | Current Version | Previous Version | Text Only | Print | Product List | Glossary Off
Versions: 1 2 3 4 5 6 7 8 9 10 11 12 13 14 15

997
FTUS43 KBIS 230321 AAC
TAFBIS
TAF AMD
KBIS 230321Z 2303/2324 05020KT P6SM BKN080
     FM230600 06012G21KT P6SM BKN020 BKN070
     FM230700 07013G21KT P6SM VCSH BKN015
      TEMPO 2311/2314 BKN008 OVC015
     FM231700 09015G22KT P6SM OVC018
     FM232200 09015KT P6SM OVC020=

USA.gov is the U.S. government's official web portal to all federal, state and local government web resources and services.